createdAt,value
2018-04-13T00:01:37.952Z,0
2018-04-13T00:06:39.056Z,0
2018-04-13T00:11:38.886Z,0
2018-04-13T00:16:38.160Z,0
2018-04-13T00:21:39.563Z,0
2018-04-13T00:26:38.286Z,0
2018-04-13T00:31:38.785Z,0
2018-04-13T00:36:38.684Z,0
2018-04-13T00:41:38.503Z,0
2018-04-13T00:46:39.227Z,0
2018-04-13T00:51:39.555Z,0
2018-04-13T00:56:38.003Z,0
2018-04-13T01:01:38.807Z,0
2018-04-13T01:06:47.697Z,0
2018-04-13T01:11:38.306Z,0
2018-04-13T01:16:38.236Z,0
2018-04-13T01:21:43.549Z,0
2018-04-13T01:26:38.328Z,0
2018-04-13T01:31:38.179Z,0
2018-04-13T01:36:37.952Z,0
2018-04-13T01:42:30.680Z,0
2018-04-13T01:46:44.348Z,0
2018-04-13T01:52:07.454Z,0
2018-04-13T01:57:26.708Z,0
2018-04-13T02:04:02.236Z,0
2018-04-13T02:11:41.260Z,0
2018-04-13T02:13:32.510Z,0
2018-04-13T02:16:57.846Z,0
2018-04-13T02:21:44.792Z,0
2018-04-13T02:27:20.917Z,0
2018-04-13T02:31:45.844Z,0
2018-04-13T02:43:28.717Z,0
2018-04-13T02:45:20.522Z,0
2018-04-13T02:47:16.409Z,0
2018-04-13T02:52:10.393Z,0
2018-04-13T02:56:42.836Z,0
2018-04-13T03:01:51.519Z,0
2018-04-13T03:06:41.509Z,0
2018-04-13T03:11:44.850Z,0
2018-04-13T03:16:49.230Z,0
2018-04-13T03:21:56.931Z,0
2018-04-13T03:26:42.747Z,0
2018-04-13T03:31:38.231Z,0
2018-04-13T03:36:57.400Z,0
2018-04-13T03:41:42.078Z,0
2018-04-13T03:46:39.509Z,0
2018-04-13T03:51:49.285Z,0
2018-04-13T03:56:38.887Z,0
2018-04-13T04:01:39.696Z,0
2018-04-13T04:06:51.358Z,0
2018-04-13T04:11:39.124Z,0
2018-04-13T04:16:40.845Z,0.1
2018-04-13T04:21:40.202Z,0.2
2018-04-13T04:26:40.563Z,0.5
2018-04-13T04:31:38.361Z,0.7
2018-04-13T04:36:40.152Z,1.8
2018-04-13T04:41:43.329Z,3.4
2018-04-13T04:46:39.068Z,5.8
2018-04-13T04:52:02.088Z,8.9
2018-04-13T04:56:38.599Z,14.2
2018-04-13T05:01:37.856Z,21.2
2018-04-13T05:06:39.201Z,25.8
2018-04-13T05:11:38.236Z,32.1
2018-04-13T05:16:38.084Z,41.2
2018-04-13T05:21:44.017Z,50.8
2018-04-13T05:26:37.868Z,62.5
2018-04-13T05:31:42.893Z,78.3
2018-04-13T05:36:44.911Z,86.2
2018-04-13T05:41:39.052Z,89.6
2018-04-13T05:46:38.022Z,99.6
2018-04-13T05:51:43.939Z,114.2
2018-04-13T05:56:38.716Z,143.3
2018-04-13T06:01:38.320Z,167.9
2018-04-13T06:06:44.620Z,164.6
2018-04-13T06:11:42.529Z,173.8
2018-04-13T06:16:38.939Z,172.5
2018-04-13T06:21:55.664Z,173.8
2018-04-13T06:26:44.403Z,182.1
2018-04-13T06:31:45.733Z,196.3
2018-04-13T06:36:49.739Z,217.5
2018-04-13T06:41:42.830Z,245.4
2018-04-13T06:46:42.960Z,277.9
2018-04-13T06:51:40.801Z,289.2
2018-04-13T06:56:44.208Z,316.7
2018-04-13T07:01:41.853Z,342.5
2018-04-13T07:06:38.098Z,385
2018-04-13T07:11:44.225Z,371.3
2018-04-13T07:16:39.068Z,376.2
2018-04-13T07:21:44.783Z,364.2
2018-04-13T07:26:43.426Z,422.1
2018-04-13T07:31:37.607Z,502.1
2018-04-13T07:36:39.788Z,502.5
2018-04-13T07:41:37.799Z,519.2
2018-04-13T07:46:47.937Z,548.7
2018-04-13T07:51:54.284Z,558.7
2018-04-13T07:56:51.441Z,626.7
2018-04-13T08:01:49.418Z,697.9
2018-04-13T08:06:41.533Z,677.9
2018-04-13T08:11:37.660Z,652.5
2018-04-13T08:16:39.828Z,677.5
2018-04-13T08:21:39.832Z,704.6
2018-04-13T08:26:37.465Z,685.4
2018-04-13T08:31:42.645Z,705
2018-04-13T08:36:37.218Z,732.5
2018-04-13T08:41:41.922Z,747.5
2018-04-13T08:46:45.671Z,660.4
2018-04-13T08:51:37.851Z,701.2
2018-04-13T08:56:37.377Z,724.6
2018-04-13T09:01:46.614Z,688.7
2018-04-13T09:06:37.450Z,685.8
2018-04-13T09:11:37.798Z,726.7
2018-04-13T09:16:43.943Z,751.7
2018-04-13T09:21:40.167Z,786.7
2018-04-13T09:26:37.484Z,818.3
2018-04-13T09:31:40.160Z,827.9
2018-04-13T09:36:47.988Z,795.8
2018-04-13T09:41:37.628Z,817.9
2018-04-13T09:46:41.101Z,839.6
2018-04-13T09:51:41.158Z,836.2
2018-04-13T09:56:37.734Z,842.9
2018-04-13T10:01:43.263Z,812.9
2018-04-13T10:06:41.655Z,863.7
2018-04-13T10:11:38.025Z,890
2018-04-13T10:16:42.727Z,884.2
2018-04-13T10:21:42.686Z,818.7
2018-04-13T10:26:37.820Z,912.9
2018-04-13T10:31:44.442Z,780
2018-04-13T10:36:45.619Z,738.7
2018-04-13T10:41:41.470Z,811.2
2018-04-13T10:46:37.609Z,783.3
2018-04-13T10:51:45.643Z,928.8
2018-04-13T10:56:38.930Z,895.4
2018-04-13T11:01:37.829Z,968.7
2018-04-13T11:06:37.589Z,1223.7
2018-04-13T11:11:44.774Z,1020.4
2018-04-13T11:16:40.330Z,770.4
2018-04-13T11:21:37.717Z,645.8
2018-04-13T11:26:39.608Z,672.9
2018-04-13T11:31:45.868Z,895
2018-04-13T11:36:37.958Z,829.2
2018-04-13T11:41:41.895Z,848.7
2018-04-13T11:46:47.441Z,772.5
2018-04-13T11:51:38.384Z,561.7
2018-04-13T11:56:37.912Z,567.9
2018-04-13T12:01:59.669Z,594.6
2018-04-13T12:06:46.476Z,857.9
2018-04-13T12:11:37.319Z,971.2
2018-04-13T12:16:37.110Z,972.1
2018-04-13T12:21:37.743Z,948.7
2018-04-13T12:26:38.506Z,945
2018-04-13T12:31:38.213Z,901.7
2018-04-13T12:36:37.811Z,762.9
2018-04-13T12:41:37.099Z,597.5
2018-04-13T12:46:36.936Z,389.2
2018-04-13T12:51:37.313Z,431.7
2018-04-13T12:56:37.055Z,415.4
2018-04-13T13:01:39.325Z,569.6
2018-04-13T13:06:37.288Z,450
2018-04-13T13:11:37.610Z,389.6
2018-04-13T13:16:39.959Z,474.2
2018-04-13T13:21:37.388Z,543.3
2018-04-13T13:26:36.933Z,593.3
2018-04-13T13:31:37.469Z,1074.2
2018-04-13T13:36:37.094Z,1426.2
2018-04-13T13:41:36.951Z,775.8
2018-04-13T13:46:37.775Z,444.6
2018-04-13T13:51:36.753Z,300
2018-04-13T13:56:37.023Z,365
2018-04-13T14:01:37.062Z,518.7
2018-04-13T14:06:37.498Z,472.1
2018-04-13T14:11:37.092Z,477.9
2018-04-13T14:16:37.315Z,533.3
2018-04-13T14:21:37.214Z,763.7
2018-04-13T14:26:37.178Z,814.6
2018-04-13T14:31:38.422Z,1306.3
2018-04-13T14:36:36.891Z,1017.5
2018-04-13T14:41:36.717Z,992.9
2018-04-13T14:46:38.798Z,652.9
2018-04-13T14:51:36.954Z,521.2
2018-04-13T14:56:37.211Z,504.2
2018-04-13T15:01:37.104Z,496.7
2018-04-13T15:06:36.604Z,375.8
2018-04-13T15:11:36.738Z,339.2
2018-04-13T15:16:36.904Z,249.2
2018-04-13T15:21:37.661Z,247.9
2018-04-13T15:26:38.068Z,215
2018-04-13T15:31:38.126Z,190.4
2018-04-13T15:36:36.986Z,204.6
2018-04-13T15:41:39.577Z,169.6
2018-04-13T15:46:36.991Z,214.6
2018-04-13T15:51:36.588Z,243.8
2018-04-13T15:56:36.604Z,213.3
2018-04-13T16:01:37.051Z,169.2
2018-04-13T16:06:37.152Z,157.5
2018-04-13T16:11:36.499Z,135
2018-04-13T16:16:36.806Z,134.6
2018-04-13T16:21:36.487Z,97.1
2018-04-13T16:26:36.874Z,89.6
2018-04-13T16:31:36.591Z,86.2
2018-04-13T16:36:36.796Z,66.2
2018-04-13T16:41:36.782Z,49.2
2018-04-13T16:46:36.398Z,54.6
2018-04-13T16:51:36.615Z,53.3
2018-04-13T16:56:36.619Z,38.7
2018-04-13T17:01:36.508Z,45.4
2018-04-13T17:06:36.796Z,64.2
2018-04-13T17:11:36.550Z,53.3
2018-04-13T17:16:36.680Z,48.7
2018-04-13T17:21:36.812Z,53.3
2018-04-13T17:26:37.026Z,58.7
2018-04-13T17:31:36.811Z,56.2
2018-04-13T17:46:48.680Z,38.7
2018-04-13T17:51:46.857Z,35
2018-04-13T17:56:48.495Z,33.3
2018-04-13T18:01:47.048Z,26.2
2018-04-13T18:06:47.308Z,20.4
2018-04-13T18:11:50.419Z,17.5
2018-04-13T18:16:46.733Z,16.7
2018-04-13T18:21:47.002Z,13.8
2018-04-13T18:26:47.421Z,8.3
2018-04-13T18:31:46.726Z,5
2018-04-13T18:36:47.063Z,3.6
2018-04-13T18:41:49.054Z,2.3
2018-04-13T18:46:46.820Z,0.6
2018-04-13T18:51:47.060Z,0.5
2018-04-13T18:56:47.666Z,0.3
2018-04-13T19:01:47.032Z,0.2
2018-04-13T19:06:46.937Z,0.2
2018-04-13T19:11:46.936Z,0.1
2018-04-13T19:16:46.649Z,0.1
2018-04-13T19:21:46.754Z,0
2018-04-13T19:26:46.527Z,0
2018-04-13T19:31:47.160Z,0
2018-04-13T19:36:46.796Z,0
2018-04-13T19:41:49.206Z,0
2018-04-13T19:46:46.805Z,0
2018-04-13T19:51:47.166Z,0
2018-04-13T19:56:51.602Z,0
2018-04-13T20:01:46.866Z,0
2018-04-13T20:06:46.660Z,0
2018-04-13T20:11:49.775Z,0
2018-04-13T20:16:48.350Z,0
2018-04-13T20:21:47.151Z,0
2018-04-13T20:26:46.940Z,0
2018-04-13T20:31:47.407Z,0
2018-04-13T20:36:46.847Z,0
2018-04-13T20:41:47.008Z,0
2018-04-13T20:46:47.159Z,0
2018-04-13T20:51:46.856Z,0
2018-04-13T20:56:47.493Z,0
2018-04-13T21:01:46.861Z,0
2018-04-13T21:06:47.050Z,0
2018-04-13T21:11:46.801Z,0
2018-04-13T21:16:46.950Z,0
2018-04-13T21:21:46.776Z,0
2018-04-13T21:26:46.757Z,0
2018-04-13T21:31:46.842Z,0
2018-04-13T21:36:46.642Z,0
2018-04-13T21:41:46.595Z,0
2018-04-13T21:46:46.633Z,0
2018-04-13T21:51:46.736Z,0
2018-04-13T21:56:46.595Z,0
2018-04-13T22:01:46.648Z,0
2018-04-13T22:06:46.911Z,0
2018-04-13T22:11:47.080Z,0
2018-04-13T22:16:46.640Z,0
2018-04-13T22:21:46.690Z,0
2018-04-13T22:26:46.507Z,0
2018-04-13T22:31:46.734Z,0
2018-04-13T22:36:46.708Z,0
2018-04-13T22:41:46.539Z,0
2018-04-13T22:46:46.390Z,0
2018-04-13T22:51:46.513Z,0
2018-04-13T22:56:46.966Z,0
2018-04-13T23:01:47.038Z,0
2018-04-13T23:06:46.454Z,0
2018-04-13T23:11:47.033Z,0
2018-04-13T23:16:46.528Z,0
2018-04-13T23:21:46.499Z,0
2018-04-13T23:26:46.337Z,0
2018-04-13T23:31:46.686Z,0
2018-04-13T23:36:46.519Z,0
2018-04-13T23:41:46.788Z,0
2018-04-13T23:46:46.369Z,0
2018-04-13T23:51:46.343Z,0
2018-04-13T23:56:46.240Z,0
